Strona główna
METAR-TAF:

METAR-TAF

Lotnisko :

Florennes, Belgia

Szerokość geograficzna: 50-14N, Długość geograficzna: 004-39E, wysokość: 279 m

Aktualna obserwacja pogody

Raport powstał 19 godziny i 58 minut temu, godzina 20:25 UTC
Wiatr 9 kt od południe
Temperatura 0°C
Wilgotność 80%
Ciśnienie 1018 hPa
Widzialność 10 km lub więcej
Przerywane chmury na wysokości 6000 ft
Przerywane chmury na wysokości 8000 ft

METAR: EBFS 262025Z 19009KT 9999 BKN060 BKN080 00/M03 Q1018 BLU BLU

czas: 17:23 (16:23 UTC)


TAF: brakujący

Obserwacja i prognoza pogody dla ponad 4000 lotnisk (raport METAR i TAF).

Dostępne stacje oznaczono żółtymi i czerwonymi punktami na mapie.

Najedź kursorem aby zobaczyć nazwę stacji.

Kliknij aby zobaczyć obserwacje i prognozy pogody.

Aby zmienić mapę: kliknij na zielony przycisk z czarnym krzyżykiem, aby powiększyć; na zielony przycisk z myślnikiem, aby pomniejszyć; na zielone strzałki, aby przejść do map sąsiednich.


METAR-TAF: